createdAt,value
2022-12-28T00:01:17.232Z,7.80
2022-12-28T00:03:44.382Z,6.47
2022-12-28T00:06:12.028Z,5.90
2022-12-28T00:08:39.290Z,6.18
2022-12-28T00:11:11.380Z,6.13
2022-12-28T00:13:41.611Z,4.93
2022-12-28T00:16:21.575Z,4.60
2022-12-28T00:18:48.451Z,4.28
2022-12-28T00:21:15.372Z,4.90
2022-12-28T00:23:42.392Z,4.50
2022-12-28T00:26:11.534Z,4.35
2022-12-28T00:28:38.806Z,4.03
2022-12-28T00:31:06.069Z,3.58
2022-12-28T00:33:33.178Z,3.58
2022-12-28T00:36:01.230Z,3.42
2022-12-28T00:38:31.595Z,3.53
2022-12-28T00:41:00.717Z,3.03
2022-12-28T00:43:28.058Z,3.50
2022-12-28T00:45:55.099Z,2.92
2022-12-28T00:48:22.178Z,3.17
2022-12-28T00:50:49.175Z,3.42
2022-12-28T00:53:16.593Z,2.72
2022-12-28T00:55:43.535Z,2.97
2022-12-28T00:58:10.949Z,2.92
2022-12-28T01:00:39.207Z,2.85
2022-12-28T01:03:06.306Z,2.33
2022-12-28T01:05:33.292Z,2.50
2022-12-28T01:08:00.262Z,2.47
2022-12-28T01:10:27.256Z,2.58
2022-12-28T01:12:54.661Z,2.55
2022-12-28T01:15:21.696Z,2.55
2022-12-28T01:17:48.654Z,2.25
2022-12-28T01:20:15.621Z,2.28
2022-12-28T01:22:42.608Z,2.20
2022-12-28T01:25:09.675Z,2.42
2022-12-28T01:27:36.647Z,2.20
2022-12-28T01:30:04.019Z,2.10
2022-12-28T01:32:31.256Z,2.20
2022-12-28T01:34:58.226Z,2.40
2022-12-28T01:37:25.163Z,2.33
2022-12-28T01:39:52.105Z,2.47
2022-12-28T01:42:19.900Z,2.08
2022-12-28T01:44:49.142Z,1.95
2022-12-28T01:47:22.708Z,2.00
2022-12-28T01:50:01.425Z,1.88
2022-12-28T01:52:41.982Z,1.85
2022-12-28T01:55:27.715Z,2.10
2022-12-28T01:57:58.189Z,1.65
2022-12-28T02:00:25.184Z,2.00
2022-12-28T02:02:58.693Z,1.77
2022-12-28T02:05:30.291Z,1.67
2022-12-28T02:08:14.486Z,1.63
2022-12-28T02:10:45.738Z,1.80
2022-12-28T02:13:17.229Z,1.77
2022-12-28T02:15:46.828Z,1.42
2022-12-28T02:18:15.283Z,1.75
2022-12-28T02:21:18.185Z,1.60
2022-12-28T02:24:00.214Z,1.73
2022-12-28T02:27:03.394Z,1.70
2022-12-28T02:29:48.923Z,1.73
2022-12-28T02:33:05.334Z,1.48
2022-12-28T02:35:55.028Z,1.50
2022-12-28T02:41:08.282Z,1.40
2022-12-28T02:43:35.457Z,1.50
2022-12-28T02:46:30.494Z,1.48
2022-12-28T02:49:35.642Z,1.48
2022-12-28T02:52:02.545Z,1.50
2022-12-28T02:55:10.020Z,1.50
2022-12-28T02:57:51.679Z,1.65
2022-12-28T03:00:19.924Z,1.20
2022-12-28T03:02:58.767Z,1.30
2022-12-28T03:06:05.831Z,1.30
2022-12-28T03:08:51.499Z,1.30
2022-12-28T03:11:20.806Z,1.25
2022-12-28T03:14:01.930Z,1.20
2022-12-28T03:17:02.448Z,1.42
2022-12-28T03:19:54.645Z,1.27
2022-12-28T03:22:40.923Z,1.20
2022-12-28T03:25:30.876Z,1.10
2022-12-28T03:28:17.023Z,1.20
2022-12-28T03:31:04.060Z,1.30
2022-12-28T03:36:23.428Z,1.20
2022-12-28T03:39:47.282Z,1.20
2022-12-28T03:42:43.625Z,1.00
2022-12-28T03:45:16.187Z,1.20
2022-12-28T03:48:03.892Z,1.27
2022-12-28T03:50:31.503Z,1.05
2022-12-28T03:52:59.057Z,1.08
2022-12-28T03:55:25.995Z,1.20
2022-12-28T03:57:52.865Z,1.10
2022-12-28T04:00:19.838Z,1.00
2022-12-28T04:02:46.809Z,1.20
2022-12-28T04:05:13.780Z,1.17
2022-12-28T04:07:40.707Z,1.20
2022-12-28T04:10:08.156Z,1.05
2022-12-28T04:12:35.004Z,1.00
2022-12-28T04:15:01.860Z,0.88
2022-12-28T04:17:29.250Z,1.02
2022-12-28T04:19:56.088Z,1.00
2022-12-28T04:22:22.936Z,1.00
2022-12-28T04:24:49.801Z,1.00
2022-12-28T04:27:16.923Z,1.33
2022-12-28T04:29:43.798Z,1.20
2022-12-28T04:32:10.652Z,1.10
2022-12-28T04:34:38.470Z,0.90
2022-12-28T04:37:07.772Z,1.02
2022-12-28T04:39:54.941Z,1.10
2022-12-28T04:42:21.681Z,0.95
2022-12-28T04:44:48.538Z,1.08
2022-12-28T04:47:15.387Z,0.90
2022-12-28T04:49:42.251Z,0.90
2022-12-28T04:52:09.130Z,0.90
2022-12-28T04:54:35.987Z,0.80
2022-12-28T04:57:02.930Z,0.93
2022-12-28T04:59:29.842Z,0.93
2022-12-28T05:01:56.948Z,0.75
2022-12-28T05:04:23.988Z,0.98
2022-12-28T05:06:50.949Z,0.70
2022-12-28T05:09:19.516Z,1.00
2022-12-28T05:11:46.588Z,0.93
2022-12-28T05:14:13.616Z,1.00
2022-12-28T05:16:41.068Z,0.82
2022-12-28T05:19:08.466Z,0.70
2022-12-28T05:21:35.484Z,0.90
2022-12-28T05:24:02.450Z,0.68
2022-12-28T05:26:29.924Z,0.82
2022-12-28T05:28:58.661Z,0.77
2022-12-28T05:31:26.164Z,0.70
2022-12-28T05:33:53.816Z,0.80
2022-12-28T05:36:26.052Z,0.93
2022-12-28T05:38:54.233Z,0.90
2022-12-28T05:41:27.133Z,0.63
2022-12-28T05:43:55.202Z,0.65
2022-12-28T05:46:25.312Z,0.80
2022-12-28T05:48:52.822Z,0.75
2022-12-28T05:51:22.461Z,0.73
2022-12-28T05:53:49.661Z,0.60
2022-12-28T05:56:21.553Z,0.65
2022-12-28T05:58:57.259Z,0.70
2022-12-28T06:01:27.704Z,0.70
2022-12-28T06:03:59.830Z,0.70
2022-12-28T06:06:27.196Z,0.88
2022-12-28T06:08:54.142Z,0.70
2022-12-28T06:11:23.211Z,0.50
2022-12-28T06:13:51.001Z,0.60
2022-12-28T06:16:23.837Z,0.80
2022-12-28T06:18:52.458Z,0.75
2022-12-28T06:21:21.615Z,0.77
2022-12-28T06:23:48.818Z,0.77
2022-12-28T06:26:18.093Z,0.80
2022-12-28T06:28:45.381Z,0.80
2022-12-28T06:31:29.505Z,0.70
2022-12-28T06:33:59.433Z,0.80
2022-12-28T06:36:37.760Z,0.50
2022-12-28T06:39:06.369Z,0.40
2022-12-28T06:41:33.585Z,0.77
2022-12-28T06:44:00.876Z,0.45
2022-12-28T06:46:29.881Z,0.60
2022-12-28T06:48:57.215Z,0.50
2022-12-28T06:51:36.427Z,0.63
2022-12-28T06:54:03.405Z,0.60
2022-12-28T06:56:31.892Z,0.55
2022-12-28T06:59:03.170Z,0.60
2022-12-28T07:01:41.581Z,0.60
2022-12-28T07:04:09.612Z,0.50
2022-12-28T07:06:43.085Z,0.60
2022-12-28T07:09:13.678Z,0.55
2022-12-28T07:11:41.345Z,0.70
2022-12-28T07:14:08.281Z,0.73
2022-12-28T07:19:01.430Z,0.60
2022-12-28T07:21:30.843Z,0.77
2022-12-28T07:23:57.956Z,0.60
2022-12-28T07:26:27.954Z,1.00
2022-12-28T07:28:56.763Z,0.63
2022-12-28T07:31:26.358Z,0.50
2022-12-28T07:33:55.557Z,0.50
2022-12-28T07:36:24.190Z,0.65
2022-12-28T07:38:51.438Z,0.50
2022-12-28T07:41:29.266Z,0.50
2022-12-28T07:43:56.252Z,0.80
2022-12-28T07:46:29.690Z,0.50
2022-12-28T07:49:01.002Z,0.73
2022-12-28T07:51:33.593Z,0.85
2022-12-28T07:54:00.844Z,0.40
2022-12-28T07:56:29.329Z,0.60
2022-12-28T07:58:58.538Z,0.65
2022-12-28T08:01:28.339Z,0.55
2022-12-28T08:03:59.103Z,0.63
2022-12-28T08:06:28.115Z,0.80
2022-12-28T08:08:58.467Z,0.65
2022-12-28T08:11:30.311Z,0.60
2022-12-28T08:13:57.732Z,0.63
2022-12-28T08:16:26.975Z,0.68
2022-12-28T08:18:54.820Z,0.88
2022-12-28T08:21:28.365Z,0.60
2022-12-28T08:23:55.825Z,0.68
2022-12-28T08:26:26.235Z,0.70
2022-12-28T08:28:56.065Z,0.52
2022-12-28T08:33:51.212Z,0.93
2022-12-28T08:36:18.281Z,0.60
2022-12-28T08:38:46.221Z,0.73
2022-12-28T08:41:16.928Z,0.70
2022-12-28T08:43:44.058Z,0.70
2022-12-28T08:46:14.235Z,0.82
2022-12-28T08:48:41.323Z,0.73
2022-12-28T08:51:14.604Z,0.80
2022-12-28T08:53:42.195Z,0.95
2022-12-28T08:56:13.167Z,0.70
2022-12-28T08:58:41.200Z,0.75
2022-12-28T09:01:13.905Z,0.80
2022-12-28T09:03:44.233Z,0.70
2022-12-28T09:06:17.295Z,0.93
2022-12-28T09:08:56.778Z,0.63
2022-12-28T09:11:31.232Z,0.60
2022-12-28T09:13:58.074Z,0.70
2022-12-28T09:16:27.964Z,0.82
2022-12-28T09:19:00.515Z,0.82
2022-12-28T09:21:30.689Z,0.63
2022-12-28T09:23:58.231Z,0.68
2022-12-28T09:26:28.048Z,0.60
2022-12-28T09:31:25.008Z,0.77
2022-12-28T09:36:48.113Z,0.65
2022-12-28T09:39:17.723Z,0.70
2022-12-28T09:42:05.261Z,0.75
2022-12-28T09:44:41.895Z,0.77
2022-12-28T09:47:17.556Z,0.70
2022-12-28T09:50:18.940Z,0.80
2022-12-28T09:53:22.081Z,0.60
2022-12-28T09:56:01.316Z,0.60
2022-12-28T09:58:30.500Z,0.68
2022-12-28T10:00:59.752Z,0.88
2022-12-28T10:03:35.476Z,0.73
2022-12-28T10:06:04.546Z,0.70
2022-12-28T10:08:31.561Z,0.80
2022-12-28T10:11:01.078Z,0.60
2022-12-28T10:16:21.075Z,0.73
2022-12-28T10:18:48.951Z,0.82
2022-12-28T10:21:18.746Z,0.73
2022-12-28T10:26:33.671Z,2.40
2022-12-28T10:29:00.929Z,3.17
2022-12-28T10:31:41.157Z,3.83
2022-12-28T10:34:17.665Z,4.18
2022-12-28T10:36:45.255Z,3.20
2022-12-28T10:39:27.109Z,3.05
2022-12-28T10:41:55.739Z,2.83
2022-12-28T10:44:39.462Z,2.45
2022-12-28T10:47:17.193Z,2.10
2022-12-28T10:50:18.559Z,2.58
2022-12-28T10:52:37.563Z,2.03
2022-12-28T10:55:28.433Z,1.70
2022-12-28T10:58:28.105Z,1.50
2022-12-28T11:00:45.684Z,1.35
2022-12-28T11:03:19.027Z,1.20
2022-12-28T11:05:47.981Z,1.25
2022-12-28T11:08:23.567Z,1.40
2022-12-28T11:10:57.208Z,1.30
2022-12-28T11:13:24.207Z,1.00
2022-12-28T11:15:51.107Z,1.10
2022-12-28T11:18:19.190Z,1.10
2022-12-28T11:20:51.299Z,1.00
2022-12-28T11:23:26.352Z,4.40
2022-12-28T11:25:53.467Z,5.80
2022-12-28T11:28:22.452Z,5.28
2022-12-28T11:30:51.151Z,5.40
2022-12-28T11:33:48.208Z,4.78
2022-12-28T11:36:17.522Z,4.28
2022-12-28T11:38:47.008Z,3.63
2022-12-28T11:41:36.493Z,3.42
2022-12-28T11:44:09.596Z,2.80
2022-12-28T11:46:38.683Z,2.60
2022-12-28T11:49:27.096Z,2.63
2022-12-28T11:52:15.909Z,2.05
2022-12-28T11:54:59.042Z,2.00
2022-12-28T11:57:38.796Z,1.85
2022-12-28T12:00:22.630Z,2.10
2022-12-28T12:03:01.096Z,2.33
2022-12-28T12:05:37.359Z,3.92
2022-12-28T12:08:16.769Z,4.65
2022-12-28T12:10:47.962Z,4.10
2022-12-28T12:13:26.900Z,4.05
2022-12-28T12:15:58.635Z,3.88
2022-12-28T12:18:27.537Z,3.30
2022-12-28T12:21:13.392Z,3.03
2022-12-28T12:23:50.282Z,2.92
2022-12-28T12:26:39.951Z,2.75
2022-12-28T12:31:39.902Z,2.60
2022-12-28T12:34:22.823Z,2.25
2022-12-28T12:36:55.433Z,1.95
2022-12-28T12:40:01.554Z,2.00
2022-12-28T12:42:59.660Z,2.50
2022-12-28T12:45:51.880Z,2.38
2022-12-28T12:48:21.887Z,2.50
2022-12-28T12:51:16.267Z,1.77
2022-12-28T12:53:52.363Z,2.05
2022-12-28T12:56:19.312Z,1.80
2022-12-28T12:58:51.872Z,1.67
2022-12-28T13:01:18.860Z,1.52
2022-12-28T13:03:46.853Z,1.48
2022-12-28T13:06:20.552Z,1.40
2022-12-28T13:09:05.001Z,1.52
2022-12-28T13:11:36.691Z,1.52
2022-12-28T13:14:03.657Z,1.48
2022-12-28T13:16:31.279Z,1.42
2022-12-28T13:19:00.159Z,1.35
2022-12-28T13:21:40.145Z,1.30
2022-12-28T13:24:23.279Z,1.30
2022-12-28T13:26:51.068Z,1.35
2022-12-28T13:29:26.127Z,1.60
2022-12-28T13:31:53.547Z,1.30
2022-12-28T13:34:28.473Z,1.33
2022-12-28T13:36:58.444Z,1.42
2022-12-28T13:39:30.453Z,1.40
2022-12-28T13:42:05.643Z,1.58
2022-12-28T13:44:45.533Z,1.42
2022-12-28T13:47:18.591Z,1.50
2022-12-28T13:50:08.469Z,1.52
2022-12-28T13:52:44.936Z,1.50
2022-12-28T13:55:22.269Z,1.30
2022-12-28T13:57:58.925Z,1.33
2022-12-28T14:00:26.536Z,1.30
2022-12-28T14:02:55.827Z,1.27
2022-12-28T14:05:28.571Z,1.00
2022-12-28T14:07:56.721Z,0.90
2022-12-28T14:10:23.807Z,1.35
2022-12-28T14:12:51.003Z,1.02
2022-12-28T14:15:18.784Z,1.27
2022-12-28T14:17:50.414Z,1.10
2022-12-28T14:20:17.719Z,1.08
2022-12-28T14:22:44.842Z,1.10
2022-12-28T14:25:19.571Z,1.20
2022-12-28T14:27:58.412Z,1.20
2022-12-28T14:30:28.861Z,1.35
2022-12-28T14:32:56.246Z,1.00
2022-12-28T14:35:26.362Z,0.90
2022-12-28T14:37:58.586Z,0.98
2022-12-28T14:40:34.388Z,1.30
2022-12-28T14:43:10.777Z,0.98
2022-12-28T14:46:07.507Z,1.00
2022-12-28T14:48:36.961Z,1.50
2022-12-28T14:51:23.991Z,1.00
2022-12-28T14:54:12.761Z,1.00
2022-12-28T14:56:40.481Z,1.15
2022-12-28T15:01:52.673Z,1.10
2022-12-28T15:04:37.700Z,1.30
2022-12-28T15:07:06.133Z,0.95
2022-12-28T15:09:33.227Z,1.17
2022-12-28T15:12:23.400Z,1.30
2022-12-28T15:14:50.440Z,1.05
2022-12-28T15:17:17.973Z,1.35
2022-12-28T15:19:45.906Z,1.20
2022-12-28T15:22:13.416Z,1.27
2022-12-28T15:24:45.214Z,1.25
2022-12-28T15:27:12.602Z,1.00
2022-12-28T15:30:04.369Z,1.10
2022-12-28T15:32:27.549Z,1.00
2022-12-28T15:34:54.501Z,1.20
2022-12-28T15:37:21.491Z,0.95
2022-12-28T15:39:48.915Z,1.10
2022-12-28T15:42:15.860Z,0.90
2022-12-28T15:44:42.816Z,1.02
2022-12-28T15:47:09.810Z,0.95
2022-12-28T15:49:36.793Z,1.17
2022-12-28T15:52:03.914Z,0.98
2022-12-28T15:54:30.848Z,1.10
2022-12-28T15:56:58.185Z,1.10
2022-12-28T15:59:25.091Z,1.02
2022-12-28T16:01:52.276Z,1.60
2022-12-28T16:04:19.378Z,1.00
2022-12-28T16:06:46.288Z,1.27
2022-12-28T16:09:14.190Z,1.40
2022-12-28T16:11:41.860Z,1.25
2022-12-28T16:14:14.916Z,1.30
2022-12-28T16:16:42.796Z,1.30
2022-12-28T16:19:12.631Z,1.13
2022-12-28T16:21:39.636Z,1.15
2022-12-28T16:24:06.841Z,1.20
2022-12-28T16:26:33.815Z,1.00
2022-12-28T16:29:01.242Z,2.20
2022-12-28T16:31:34.134Z,8.90
2022-12-28T16:34:05.327Z,8.10
2022-12-28T16:36:32.818Z,7.55
2022-12-28T16:39:00.139Z,6.95
2022-12-28T16:41:32.883Z,6.00
2022-12-28T16:44:06.047Z,5.22
2022-12-28T16:46:33.015Z,4.50
2022-12-28T16:49:01.345Z,4.57
2022-12-28T16:51:29.302Z,3.65
2022-12-28T16:53:56.286Z,3.78
2022-12-28T16:56:23.581Z,3.78
2022-12-28T16:58:56.372Z,3.17
2022-12-28T17:01:23.478Z,2.90
2022-12-28T17:03:50.599Z,3.25
2022-12-28T17:06:17.575Z,2.80
2022-12-28T17:08:44.677Z,2.83
2022-12-28T17:11:12.473Z,8.73
2022-12-28T17:13:39.622Z,8.25
2022-12-28T17:16:07.264Z,8.65
2022-12-28T17:18:34.371Z,7.65
2022-12-28T17:21:06.469Z,7.22
2022-12-28T17:23:34.313Z,7.40
2022-12-28T17:26:01.363Z,7.78
2022-12-28T17:28:29.558Z,6.93
2022-12-28T17:31:12.281Z,6.80
2022-12-28T17:33:40.396Z,7.93
2022-12-28T17:36:08.366Z,7.22
2022-12-28T17:38:35.371Z,7.30
2022-12-28T17:41:15.608Z,6.63
2022-12-28T17:43:50.630Z,6.35
2022-12-28T17:46:18.409Z,5.97
2022-12-28T17:48:45.450Z,6.22
2022-12-28T17:51:12.754Z,6.13
2022-12-28T17:53:40.306Z,5.43
2022-12-28T17:56:10.224Z,5.55
2022-12-28T17:58:37.182Z,5.47
2022-12-28T18:01:04.560Z,4.80
2022-12-28T18:03:33.904Z,4.97
2022-12-28T18:08:28.916Z,4.90
2022-12-28T18:10:56.301Z,4.35
2022-12-28T18:13:23.428Z,4.63
2022-12-28T18:15:50.577Z,4.35
2022-12-28T18:18:18.254Z,4.13
2022-12-28T18:20:45.306Z,4.72
2022-12-28T18:23:12.315Z,4.38
2022-12-28T18:25:39.399Z,3.50
2022-12-28T18:28:06.414Z,3.70
2022-12-28T18:30:33.618Z,3.80
2022-12-28T18:33:00.764Z,3.60
2022-12-28T18:35:27.770Z,3.67
2022-12-28T18:37:54.865Z,3.10
2022-12-28T18:40:21.874Z,3.00
2022-12-28T18:42:48.779Z,3.17
2022-12-28T18:45:16.035Z,3.13
2022-12-28T18:47:43.007Z,3.10
2022-12-28T18:50:10.625Z,3.13
2022-12-28T18:52:40.104Z,3.30
2022-12-28T18:55:07.362Z,2.95
2022-12-28T18:57:35.394Z,2.65
2022-12-28T19:00:02.611Z,2.72
2022-12-28T19:02:29.702Z,3.38
2022-12-28T19:04:56.821Z,3.10
2022-12-28T19:07:23.798Z,2.72
2022-12-28T19:10:12.474Z,3.00
2022-12-28T19:12:41.662Z,2.65
2022-12-28T19:15:09.652Z,2.28
2022-12-28T19:17:36.817Z,2.83
2022-12-28T19:20:04.692Z,2.45
2022-12-28T19:22:31.745Z,2.47
2022-12-28T19:24:58.805Z,2.50
2022-12-28T19:27:25.781Z,2.38
2022-12-28T19:29:52.767Z,2.30
2022-12-28T19:32:19.698Z,2.38
2022-12-28T19:34:46.676Z,2.75
2022-12-28T19:37:13.620Z,5.25
2022-12-28T19:39:40.804Z,6.07
2022-12-28T19:42:07.787Z,5.97
2022-12-28T19:44:34.785Z,5.60
2022-12-28T19:47:01.878Z,5.20
2022-12-28T19:49:28.888Z,5.10
2022-12-28T19:51:56.805Z,4.68
2022-12-28T19:54:23.804Z,4.40
2022-12-28T19:56:50.678Z,3.78
2022-12-28T19:59:17.525Z,3.60
2022-12-28T20:01:44.586Z,3.53
2022-12-28T20:04:14.069Z,3.40
2022-12-28T20:06:45.748Z,3.13
2022-12-28T20:09:13.824Z,3.10
2022-12-28T20:11:41.073Z,2.53
2022-12-28T20:14:08.122Z,3.42
2022-12-28T20:16:35.725Z,3.03
2022-12-28T20:19:06.500Z,5.05
2022-12-28T20:21:33.845Z,6.35
2022-12-28T20:24:01.758Z,6.95
2022-12-28T20:26:29.429Z,5.80
2022-12-28T20:29:00.831Z,4.97
2022-12-28T20:31:28.308Z,4.80
2022-12-28T20:33:55.656Z,4.10
2022-12-28T20:36:24.788Z,4.18
2022-12-28T20:38:52.045Z,4.18
2022-12-28T20:41:40.474Z,3.30
2022-12-28T20:44:10.093Z,3.40
2022-12-28T20:46:37.073Z,3.40
2022-12-28T20:49:04.815Z,3.13
2022-12-28T20:51:32.122Z,3.03
2022-12-28T20:53:59.075Z,2.85
2022-12-28T20:56:26.016Z,5.80
2022-12-28T20:58:53.028Z,5.88
2022-12-28T21:01:20.393Z,6.03
2022-12-28T21:03:47.395Z,5.00
2022-12-28T21:06:14.657Z,4.88
2022-12-28T21:08:41.541Z,4.57
2022-12-28T21:11:08.471Z,4.10
2022-12-28T21:13:40.709Z,3.95
2022-12-28T21:16:11.616Z,3.40
2022-12-28T21:18:38.584Z,3.42
2022-12-28T21:21:06.099Z,3.17
2022-12-28T21:23:33.432Z,2.83
2022-12-28T21:26:02.222Z,2.88
2022-12-28T21:28:29.298Z,2.47
2022-12-28T21:30:57.741Z,2.75
2022-12-28T21:33:24.905Z,2.50
2022-12-28T21:36:01.470Z,2.50
2022-12-28T21:38:29.600Z,2.42
2022-12-28T21:41:04.605Z,2.38
2022-12-28T21:43:32.106Z,2.20
2022-12-28T21:46:13.396Z,2.20
2022-12-28T21:48:41.020Z,2.20
2022-12-28T21:51:30.219Z,2.30
2022-12-28T21:54:00.861Z,2.00
2022-12-28T21:56:28.485Z,1.98
2022-12-28T21:58:56.003Z,2.97
2022-12-28T22:01:41.447Z,6.05
2022-12-28T22:04:33.115Z,5.28
2022-12-28T22:07:00.073Z,5.28
2022-12-28T22:09:45.671Z,4.85
2022-12-28T22:12:32.012Z,4.20
2022-12-28T22:15:28.405Z,3.50
2022-12-28T22:18:04.049Z,3.25
2022-12-28T22:20:32.111Z,3.10
2022-12-28T22:23:00.764Z,3.10
2022-12-28T22:25:28.916Z,2.85
2022-12-28T22:27:56.744Z,2.67
2022-12-28T22:30:24.144Z,2.63
2022-12-28T22:32:51.069Z,2.10
2022-12-28T22:35:18.416Z,2.40
2022-12-28T22:37:45.407Z,2.17
2022-12-28T22:40:12.934Z,1.80
2022-12-28T22:42:45.423Z,2.13
2022-12-28T22:45:14.279Z,1.70
2022-12-28T22:47:41.693Z,1.95
2022-12-28T22:50:10.410Z,1.98
2022-12-28T22:52:37.310Z,2.00
2022-12-28T22:55:04.561Z,1.95
2022-12-28T22:57:31.455Z,1.40
2022-12-28T22:59:58.351Z,1.60
2022-12-28T23:02:25.449Z,1.60
2022-12-28T23:04:52.367Z,1.48
2022-12-28T23:07:19.275Z,1.55
2022-12-28T23:09:46.220Z,1.33
2022-12-28T23:12:13.184Z,1.25
2022-12-28T23:14:58.922Z,1.70
2022-12-28T23:17:26.742Z,2.00
2022-12-28T23:20:12.622Z,1.30
2022-12-28T23:22:57.934Z,1.30
2022-12-28T23:25:44.142Z,1.35
2022-12-28T23:28:15.900Z,1.30
2022-12-28T23:30:46.020Z,1.20
2022-12-28T23:33:13.088Z,1.58
2022-12-28T23:35:40.029Z,3.80
2022-12-28T23:38:06.884Z,5.45
2022-12-28T23:40:33.821Z,6.78
2022-12-28T23:43:00.802Z,5.07
2022-12-28T23:45:27.819Z,4.70
2022-12-28T23:47:55.427Z,4.40
2022-12-28T23:50:22.447Z,4.10
2022-12-28T23:52:49.464Z,3.60
2022-12-28T23:55:16.446Z,3.20
2022-12-28T23:57:43.342Z,3.10
